X  Close Metar Aviation Weather Data     LGRX Patras Araxos Agamemnon Airport
Temperature
91°F Temperature
57°F Dewpoint
32% Humidity



Wind
12 MPH
19 KM/H
5 M/S
10 KTS



20°
NNE
Current Conditions

Clear Clear
Pressure 1012.87 (hPa) - 29.91 (inHg)
Visibility 6 (mile) - 9.7 (km)
Airport
Airport-code LGRX

Location: Patras Araxos Agamemnon Airport
Distance: 108 (mi)

Metar:
LGRX 210620Z 02010KT CAVOK 33/14 Q1013

Time: 21-06-2024 09:20 EEST